Time;durP1;ratioP1;P1;durP2;ratioP2;P2;SDS_P1;SDS_P2;PMS_P1;PMS_P2;Temp;Humidity;BMP_temperature;BMP_pressure;BME280_temperature;BME280_humidity;BME280_pressure;Samples;Min_cycle;Max_cycle;Signal;HPM_P1;HPM_P2
2022/04/08 00:00:17;;;;;;;3.23;1.70;;;10.90;99.90;;;;;;5001747;28;20435;-73
2022/04/08 00:02:43;;;;;;;4.80;2.00;;;11.00;99.90;;;;;;4993744;28;20224;-74
2022/04/08 00:05:10;;;;;;;9.13;2.20;;;10.90;99.90;;;;;;4997375;28;20899;-76
2022/04/08 00:07:36;;;;;;;4.47;2.20;;;10.90;99.90;;;;;;4997553;28;20460;-74
2022/04/08 00:10:06;;;;;;;5.83;2.90;;;10.90;99.90;;;;;;4999828;28;21138;-74
2022/04/08 00:12:32;;;;;;;4.70;2.43;;;10.90;99.90;;;;;;4998510;28;20432;-78
2022/04/08 00:14:58;;;;;;;7.77;2.63;;;10.90;99.90;;;;;;4998134;28;20447;-75
2022/04/08 00:17:24;;;;;;;7.53;4.10;;;10.80;99.90;;;;;;4996968;28;20487;-75
2022/04/08 00:19:50;;;;;;;4.90;2.10;;;10.80;99.90;;;;;;4995456;28;20452;-75
2022/04/08 00:22:18;;;;;;;7.43;2.60;;;10.80;99.90;;;;;;4998076;28;20853;-75
2022/04/08 00:24:44;;;;;;;3.40;2.13;;;10.70;99.90;;;;;;4995591;28;20174;-75
2022/04/08 00:27:10;;;;;;;6.77;2.40;;;10.80;99.90;;;;;;4999500;28;20447;-76
2022/04/08 00:29:35;;;;;;;8.93;2.80;;;10.70;99.90;;;;;;5000988;28;20483;-74
2022/04/08 00:32:01;;;;;;;5.20;2.60;;;10.70;99.90;;;;;;4995520;28;20182;-74
2022/04/08 00:34:27;;;;;;;5.50;2.67;;;10.70;99.90;;;;;;4998647;28;20190;-75
2022/04/08 00:36:55;;;;;;;6.13;2.20;;;10.70;99.90;;;;;;4994612;28;20320;-76
2022/04/08 00:39:21;;;;;;;5.90;2.90;;;10.70;99.90;;;;;;4999100;28;20544;-75
2022/04/08 00:41:47;;;;;;;5.53;2.30;;;10.70;99.90;;;;;;4995628;28;20479;-75
2022/04/08 00:44:13;;;;;;;4.03;2.47;;;10.60;99.90;;;;;;4994636;28;20806;-74
2022/04/08 00:46:39;;;;;;;9.87;2.30;;;10.60;99.90;;;;;;4993558;28;20923;-74
2022/04/08 00:49:05;;;;;;;3.20;2.00;;;10.60;99.90;;;;;;4994294;28;20193;-73
2022/04/08 00:51:34;;;;;;;7.10;2.20;;;10.50;99.90;;;;;;4993361;28;20670;-76
2022/04/08 00:54:00;;;;;;;6.73;2.37;;;10.50;99.90;;;;;;4995827;28;21181;-75
2022/04/08 00:56:30;;;;;;;7.70;2.30;;;10.60;99.90;;;;;;4994450;28;20949;-75
2022/04/08 00:58:57;;;;;;;4.50;2.33;;;10.60;99.90;;;;;;4992705;28;20464;-74
2022/04/08 01:01:26;;;;;;;6.10;2.70;;;10.60;99.90;;;;;;4996170;28;20464;-74
2022/04/08 01:03:52;;;;;;;7.57;3.50;;;10.50;99.90;;;;;;4997416;28;21664;-74
2022/04/08 01:06:21;;;;;;;3.70;2.33;;;10.60;99.90;;;;;;5000704;28;20949;-75
2022/04/08 01:08:49;;;;;;;7.37;2.50;;;10.70;99.90;;;;;;4994706;28;20448;-77
2022/04/08 01:11:15;;;;;;;7.40;2.10;;;10.70;99.90;;;;;;4996120;28;20951;-74
2022/04/08 01:13:41;;;;;;;5.40;2.07;;;10.70;99.90;;;;;;4990554;28;20429;-75
2022/04/08 01:16:08;;;;;;;4.97;2.40;;;10.70;99.90;;;;;;4993654;28;20432;-73
2022/04/08 01:18:33;;;;;;;5.07;2.60;;;10.70;99.90;;;;;;4992836;28;20518;-74
2022/04/08 01:21:05;;;;;;;3.43;2.10;;;10.70;99.90;;;;;;4992402;28;21397;-75
2022/04/08 01:23:34;;;;;;;5.63;2.20;;;10.70;99.90;;;;;;4992690;28;20177;-75
2022/04/08 01:26:06;;;;;;;2.67;1.90;;;10.70;99.90;;;;;;4997229;28;20820;-75
2022/04/08 01:28:32;;;;;;;7.73;2.67;;;10.70;99.90;;;;;;4994038;28;20491;-74
2022/04/08 01:30:57;;;;;;;9.17;2.30;;;10.60;99.90;;;;;;4993273;28;20919;-74
2022/04/08 01:33:23;;;;;;;6.47;3.37;;;10.60;99.90;;;;;;4991749;28;20941;-75
2022/04/08 01:35:49;;;;;;;3.23;2.17;;;10.60;99.90;;;;;;4994129;28;20667;-75
2022/04/08 01:38:14;;;;;;;4.90;2.60;;;10.70;99.90;;;;;;4996321;28;20634;-75
2022/04/08 01:40:40;;;;;;;4.00;2.33;;;10.70;99.90;;;;;;4990841;28;20182;-75
2022/04/08 01:43:06;;;;;;;3.63;2.10;;;10.70;99.90;;;;;;4993007;28;20718;-75
2022/04/08 01:45:31;;;;;;;7.27;2.40;;;10.70;99.90;;;;;;4998033;28;20174;-74
2022/04/08 01:47:57;;;;;;;7.97;3.00;;;10.60;99.90;;;;;;4993585;28;20201;-74
2022/04/08 01:50:22;;;;;;;5.27;2.07;;;10.60;99.90;;;;;;4994570;28;21119;-75
2022/04/08 01:52:48;;;;;;;2.60;1.83;;;10.60;99.90;;;;;;4996919;28;20185;-76
2022/04/08 01:55:15;;;;;;;4.33;2.53;;;10.60;99.90;;;;;;4996402;28;20177;-74
2022/04/08 01:57:41;;;;;;;2.50;1.80;;;10.60;99.90;;;;;;4995616;28;20506;-75
2022/04/08 02:00:08;;;;;;;3.60;2.17;;;10.60;99.90;;;;;;4991942;28;20505;-74
2022/04/08 02:02:35;;;;;;;6.27;2.10;;;10.40;99.90;;;;;;4995401;28;20483;-75
2022/04/08 02:05:02;;;;;;;4.83;2.07;;;10.40;99.90;;;;;;4996238;28;20444;-75
2022/04/08 02:07:28;;;;;;;5.80;2.97;;;10.40;99.90;;;;;;4992077;28;20427;-75
2022/04/08 02:09:54;;;;;;;2.93;2.00;;;10.40;99.90;;;;;;4992150;28;21011;-74
2022/04/08 02:12:20;;;;;;;3.70;1.97;;;10.40;99.90;;;;;;4997412;28;20558;-75
2022/04/08 02:14:46;;;;;;;2.80;2.13;;;10.40;99.90;;;;;;4995608;28;20519;-75
2022/04/08 02:17:11;;;;;;;3.83;2.23;;;10.40;99.90;;;;;;4991139;28;21891;-75
2022/04/08 02:19:37;;;;;;;3.93;2.27;;;10.30;99.90;;;;;;4995825;28;20204;-75
2022/04/08 02:22:04;;;;;;;8.33;2.70;;;10.30;99.90;;;;;;4995131;28;20239;-75
2022/04/08 02:24:30;;;;;;;10.83;2.33;;;10.30;99.90;;;;;;4998858;28;20188;-74
2022/04/08 02:26:56;;;;;;;5.90;2.50;;;10.30;99.90;;;;;;4998982;28;20437;-74
2022/04/08 02:29:22;;;;;;;4.00;1.90;;;10.30;99.90;;;;;;4993713;28;20213;-74
2022/04/08 02:31:48;;;;;;;4.20;2.17;;;10.30;99.90;;;;;;4993198;28;20626;-75
2022/04/08 02:34:14;;;;;;;7.33;2.63;;;10.30;99.90;;;;;;4994221;28;20462;-75
2022/04/08 02:36:40;;;;;;;4.00;2.57;;;10.30;99.90;;;;;;4994042;28;20881;-75
2022/04/08 02:39:07;;;;;;;7.53;2.60;;;10.30;99.90;;;;;;4996080;28;20230;-73
2022/04/08 02:41:33;;;;;;;4.07;2.10;;;10.20;99.90;;;;;;4995226;28;20475;-74
2022/04/08 02:43:59;;;;;;;7.13;2.70;;;10.30;99.90;;;;;;4999047;28;20460;-74
2022/04/08 02:46:24;;;;;;;6.67;2.83;;;10.30;99.90;;;;;;5007354;28;20218;-73
2022/04/08 02:48:50;;;;;;;6.47;2.30;;;10.30;99.90;;;;;;5007949;28;20197;-74
2022/04/08 02:51:16;;;;;;;3.90;2.20;;;10.30;99.90;;;;;;5008389;28;20177;-75
2022/04/08 02:53:42;;;;;;;6.60;2.53;;;10.30;99.90;;;;;;5001103;28;20571;-76
2022/04/08 02:56:08;;;;;;;5.33;2.40;;;10.20;99.90;;;;;;4999306;28;20456;-76
2022/04/08 02:58:34;;;;;;;3.20;2.10;;;10.30;99.90;;;;;;5000918;28;20205;-77
2022/04/08 03:00:59;;;;;;;4.17;2.30;;;10.30;99.90;;;;;;5000263;28;20182;-76
2022/04/08 03:03:26;;;;;;;5.33;3.23;;;10.30;99.90;;;;;;5001184;28;20951;-76
2022/04/08 03:05:53;;;;;;;3.90;2.37;;;10.30;99.90;;;;;;5006610;28;20273;-75
2022/04/08 03:08:19;;;;;;;11.63;2.80;;;10.30;99.90;;;;;;5006434;28;20463;-75
2022/04/08 03:10:44;;;;;;;6.13;2.23;;;10.20;99.90;;;;;;5002684;28;20455;-77
2022/04/08 03:13:11;;;;;;;10.93;3.73;;;10.20;99.90;;;;;;5004450;28;20513;-76
2022/04/08 03:15:38;;;;;;;6.53;2.47;;;10.20;99.90;;;;;;5006054;28;20189;-79
2022/04/08 03:18:05;;;;;;;6.33;2.20;;;10.20;99.90;;;;;;4999058;28;20499;-76
2022/04/08 03:20:30;;;;;;;4.70;2.20;;;10.10;99.90;;;;;;5004289;28;20448;-77
2022/04/08 03:22:56;;;;;;;7.27;2.70;;;10.10;99.90;;;;;;5002943;28;20472;-73
2022/04/08 03:25:21;;;;;;;13.07;2.70;;;10.10;99.90;;;;;;4998798;28;20668;-77
2022/04/08 03:27:47;;;;;;;5.50;2.40;;;10.10;99.90;;;;;;4999489;28;20205;-74
2022/04/08 03:30:13;;;;;;;4.60;2.27;;;10.00;99.90;;;;;;5004757;28;20181;-74
2022/04/08 03:32:38;;;;;;;5.97;2.80;;;10.00;99.90;;;;;;5001787;28;20182;-75
2022/04/08 03:35:05;;;;;;;4.70;2.43;;;9.90;99.90;;;;;;5000565;28;20189;-74
2022/04/08 03:37:30;;;;;;;5.13;2.07;;;9.90;99.90;;;;;;4997627;28;20273;-76
2022/04/08 03:39:56;;;;;;;4.97;2.60;;;9.90;99.90;;;;;;5002168;28;21097;-76
2022/04/08 03:42:23;;;;;;;5.00;2.37;;;9.80;99.90;;;;;;4997859;28;20240;-75
2022/04/08 03:44:51;;;;;;;4.00;2.37;;;9.80;99.90;;;;;;5001621;28;20189;-76
2022/04/08 03:47:20;;;;;;;10.53;2.47;;;9.80;99.90;;;;;;5004422;28;20437;-75
2022/04/08 03:49:46;;;;;;;3.37;2.20;;;9.90;99.90;;;;;;5001203;28;20797;-75
2022/04/08 03:52:12;;;;;;;8.67;2.70;;;9.90;99.90;;;;;;4997227;28;20918;-75
2022/04/08 03:54:38;;;;;;;6.43;2.70;;;9.90;99.90;;;;;;4998394;28;20474;-75
2022/04/08 03:57:05;;;;;;;6.13;2.67;;;9.90;99.90;;;;;;4993649;28;20189;-75
2022/04/08 03:59:31;;;;;;;5.57;2.23;;;9.90;99.90;;;;;;4991939;28;20474;-75
2022/04/08 04:01:56;;;;;;;11.80;3.10;;;9.80;99.90;;;;;;4996687;28;20464;-75
2022/04/08 04:04:23;;;;;;;5.67;2.93;;;9.80;99.90;;;;;;4993325;28;20193;-74
2022/04/08 04:06:49;;;;;;;6.23;2.37;;;9.80;99.90;;;;;;4995479;28;21292;-75
2022/04/08 04:09:14;;;;;;;4.40;2.47;;;9.90;99.90;;;;;;4993498;28;20456;-74
2022/04/08 04:11:40;;;;;;;5.67;2.50;;;9.90;99.90;;;;;;4992865;28;20448;-74
2022/04/08 04:14:06;;;;;;;4.07;2.13;;;9.90;99.90;;;;;;4993769;28;20259;-75
2022/04/08 04:16:32;;;;;;;5.37;2.23;;;10.00;99.90;;;;;;4996097;28;20193;-74
2022/04/08 04:18:58;;;;;;;6.17;2.10;;;10.00;99.90;;;;;;4993559;28;20588;-74
2022/04/08 04:21:24;;;;;;;5.97;2.43;;;10.00;99.90;;;;;;4992839;28;20464;-74
2022/04/08 04:23:51;;;;;;;7.87;3.33;;;10.00;99.90;;;;;;4995015;28;20186;-75
2022/04/08 04:26:16;;;;;;;7.40;2.40;;;10.00;99.90;;;;;;4996471;28;20213;-74
2022/04/08 04:28:42;;;;;;;7.33;2.30;;;10.10;99.90;;;;;;4993524;28;20492;-74
2022/04/08 04:31:08;;;;;;;4.17;2.10;;;10.10;99.90;;;;;;4997350;28;20196;-74
2022/04/08 04:33:33;;;;;;;4.20;2.40;;;10.10;99.90;;;;;;5000930;28;21178;-74
2022/04/08 04:36:00;;;;;;;5.93;2.30;;;10.00;99.90;;;;;;4995072;28;20190;-74
2022/04/08 04:38:25;;;;;;;4.13;2.33;;;9.90;99.90;;;;;;4991349;28;20694;-74
2022/04/08 04:40:51;;;;;;;4.60;2.30;;;9.90;99.90;;;;;;4991993;28;20445;-75
2022/04/08 04:43:17;;;;;;;4.00;1.80;;;9.90;99.90;;;;;;4994127;28;20240;-76
2022/04/08 04:45:43;;;;;;;5.90;3.00;;;9.90;99.90;;;;;;4994225;28;20726;-76
2022/04/08 04:48:10;;;;;;;7.80;2.30;;;10.00;99.90;;;;;;4995984;28;20201;-75
2022/04/08 04:50:36;;;;;;;7.43;2.90;;;9.90;99.90;;;;;;4992826;28;20486;-76
2022/04/08 04:53:03;;;;;;;8.93;2.43;;;9.90;99.90;;;;;;4995390;28;20436;-75
2022/04/08 04:55:28;;;;;;;15.10;2.80;;;9.90;99.90;;;;;;4994736;28;21382;-76
2022/04/08 04:57:54;;;;;;;6.80;2.30;;;9.90;99.90;;;;;;4996481;28;20475;-75
2022/04/08 05:00:20;;;;;;;6.27;2.20;;;9.90;99.90;;;;;;4994832;28;20275;-75
2022/04/08 05:02:46;;;;;;;6.80;2.67;;;10.00;99.90;;;;;;4987187;28;20464;-74
2022/04/08 05:05:12;;;;;;;4.33;2.03;;;10.00;99.90;;;;;;4993878;28;20177;-74
2022/04/08 05:07:38;;;;;;;2.63;1.80;;;10.00;99.90;;;;;;4992689;28;20437;-74
2022/04/08 05:10:04;;;;;;;7.53;2.47;;;9.90;99.90;;;;;;4992557;28;20520;-74
2022/04/08 05:12:30;;;;;;;4.27;2.40;;;9.90;99.90;;;;;;4992393;28;20181;-76
2022/04/08 05:14:56;;;;;;;8.57;2.57;;;9.80;99.90;;;;;;4993245;28;20447;-76
2022/04/08 05:17:22;;;;;;;7.30;2.17;;;9.80;99.90;;;;;;4998279;28;20443;-74
2022/04/08 05:19:47;;;;;;;12.47;2.90;;;9.80;99.90;;;;;;4999291;28;20459;-77
2022/04/08 05:22:13;;;;;;;9.13;2.87;;;9.80;99.90;;;;;;4994062;28;20295;-75
2022/04/08 05:24:45;;;;;;;5.60;2.13;;;9.80;99.90;;;;;;5000576;28;20185;-76
2022/04/08 05:27:10;;;;;;;7.00;2.43;;;9.80;99.90;;;;;;4998037;28;20581;-77
2022/04/08 05:29:36;;;;;;;5.20;3.00;;;9.70;99.90;;;;;;4990689;28;20487;-75
2022/04/08 05:32:02;;;;;;;3.80;2.20;;;9.70;99.90;;;;;;4991891;28;20181;-76
2022/04/08 05:34:27;;;;;;;4.73;2.50;;;9.70;99.90;;;;;;4993725;28;20930;-75
2022/04/08 05:36:53;;;;;;;4.93;2.60;;;9.70;99.90;;;;;;4991694;28;20181;-76
2022/04/08 05:39:19;;;;;;;7.13;2.00;;;9.80;99.90;;;;;;4993676;28;20213;-74
2022/04/08 05:41:44;;;;;;;5.17;4.60;;;9.90;99.90;;;;;;4992933;28;20664;-73
2022/04/08 05:44:10;;;;;;;6.50;2.63;;;9.90;99.90;;;;;;4990998;28;20185;-74
2022/04/08 05:46:36;;;;;;;5.63;2.40;;;9.90;99.90;;;;;;4995140;28;20196;-73
2022/04/08 05:49:02;;;;;;;6.03;2.53;;;9.90;99.90;;;;;;4990005;28;20197;-73
2022/04/08 05:51:27;;;;;;;6.57;2.30;;;9.90;99.90;;;;;;4991345;28;20976;-74
2022/04/08 05:53:53;;;;;;;5.67;2.30;;;9.90;99.90;;;;;;4990807;28;20220;-74
2022/04/08 05:56:19;;;;;;;8.90;3.43;;;9.90;99.90;;;;;;4991862;28;20185;-73
2022/04/08 05:58:44;;;;;;;5.80;2.60;;;10.00;99.90;;;;;;4988489;28;20234;-76
2022/04/08 06:01:10;;;;;;;8.80;2.50;;;9.90;99.90;;;;;;4992957;28;20268;-75
2022/04/08 06:03:36;;;;;;;9.57;3.40;;;9.90;99.90;;;;;;4993466;28;20212;-74
2022/04/08 06:06:02;;;;;;;6.90;2.73;;;9.90;99.90;;;;;;4991984;28;20472;-74
2022/04/08 06:08:28;;;;;;;4.93;3.00;;;10.00;99.90;;;;;;4991073;28;20288;-75
2022/04/08 06:10:54;;;;;;;4.20;2.20;;;10.00;99.90;;;;;;4992067;28;20442;-76
2022/04/08 06:13:24;;;;;;;5.73;2.37;;;10.00;99.90;;;;;;4997702;28;20181;-76
2022/04/08 06:15:51;;;;;;;8.47;2.70;;;9.90;99.90;;;;;;4998184;28;20209;-75
2022/04/08 06:18:18;;;;;;;7.20;2.90;;;9.90;99.90;;;;;;4996721;28;20441;-75
2022/04/08 06:20:44;;;;;;;3.70;2.27;;;9.90;99.90;;;;;;4992078;28;20520;-74
2022/04/08 06:23:09;;;;;;;13.70;4.40;;;10.00;99.90;;;;;;5001149;28;20471;-75
2022/04/08 06:25:35;;;;;;;5.73;2.90;;;9.90;99.90;;;;;;5011684;28;21085;-76
2022/04/08 06:28:04;;;;;;;4.87;2.30;;;10.00;99.90;;;;;;5012218;28;20237;-76
2022/04/08 06:30:35;;;;;;;10.00;2.50;;;10.10;99.90;;;;;;5013935;28;20235;-76
2022/04/08 06:33:04;;;;;;;8.80;2.40;;;10.00;99.90;;;;;;5017105;28;20440;-78
2022/04/08 06:35:30;;;;;;;6.50;2.10;;;10.00;99.90;;;;;;5008678;28;20926;-76
2022/04/08 06:38:00;;;;;;;4.77;2.67;;;10.00;99.90;;;;;;5009873;28;20483;-75
2022/04/08 06:40:26;;;;;;;6.33;2.33;;;9.90;99.90;;;;;;5010886;28;20442;-75
2022/04/08 06:42:55;;;;;;;3.93;2.43;;;9.90;99.90;;;;;;4997908;28;20464;-75
2022/04/08 06:45:21;;;;;;;7.57;2.80;;;9.90;99.90;;;;;;4997920;28;20989;-75
2022/04/08 06:47:48;;;;;;;2.27;1.83;;;9.80;99.90;;;;;;4994480;28;20467;-75
2022/04/08 06:50:14;;;;;;;4.90;2.23;;;9.70;99.90;;;;;;5000127;28;20436;-75
2022/04/08 06:52:40;;;;;;;4.73;2.40;;;9.70;99.90;;;;;;5003551;28;20811;-76
2022/04/08 06:55:07;;;;;;;4.20;2.00;;;9.70;99.90;;;;;;4996138;28;20447;-77
2022/04/08 06:57:32;;;;;;;3.40;1.80;;;9.70;99.90;;;;;;4998480;28;20193;-75
2022/04/08 06:59:58;;;;;;;6.07;2.27;;;9.70;99.90;;;;;;5000159;28;20456;-77
2022/04/08 07:02:23;;;;;;;6.23;1.90;;;9.60;99.90;;;;;;4995818;28;20864;-76
2022/04/08 07:04:50;;;;;;;3.70;1.97;;;9.50;99.90;;;;;;4998431;28;20201;-76
2022/04/08 07:07:15;;;;;;;4.37;2.23;;;9.40;99.90;;;;;;5004264;28;20257;-76
2022/04/08 07:09:41;;;;;;;2.00;1.80;;;9.40;99.90;;;;;;4995257;28;20461;-76
2022/04/08 07:12:07;;;;;;;2.00;1.73;;;9.30;99.90;;;;;;4997817;28;20197;-75
2022/04/08 07:14:32;;;;;;;3.53;2.00;;;9.40;99.90;;;;;;4996153;28;20221;-76
2022/04/08 07:16:58;;;;;;;4.60;1.70;;;9.20;99.90;;;;;;4995987;28;20465;-75
2022/04/08 07:19:23;;;;;;;7.17;2.10;;;9.20;99.90;;;;;;4997523;28;20270;-75
2022/04/08 07:21:49;;;;;;;2.50;1.63;;;9.10;99.90;;;;;;4995885;28;20235;-77
2022/04/08 07:24:15;;;;;;;4.30;2.10;;;9.20;99.90;;;;;;4996100;28;20181;-76
2022/04/08 07:26:40;;;;;;;9.10;2.63;;;9.10;99.90;;;;;;4996555;28;20272;-78
2022/04/08 07:29:06;;;;;;;3.30;1.83;;;9.10;99.90;;;;;;4991917;28;20205;-75
2022/04/08 07:31:32;;;;;;;4.73;1.90;;;9.20;99.90;;;;;;4993625;28;20200;-79
2022/04/08 07:33:58;;;;;;;2.90;1.70;;;9.20;99.90;;;;;;4997290;28;20299;-77
2022/04/08 07:36:23;;;;;;;3.80;1.70;;;9.10;99.90;;;;;;4997738;28;20774;-79
2022/04/08 07:38:49;;;;;;;3.40;1.80;;;9.00;99.90;;;;;;4994713;28;20268;-77
2022/04/08 07:41:15;;;;;;;3.10;1.50;;;8.90;99.90;;;;;;4994510;28;20276;-77
2022/04/08 07:43:40;;;;;;;5.00;2.20;;;8.90;99.90;;;;;;4993783;28;20189;-75
2022/04/08 07:46:06;;;;;;;2.57;1.57;;;8.90;99.90;;;;;;5003661;28;20984;-77
2022/04/08 07:48:32;;;;;;;6.37;1.80;;;8.90;99.90;;;;;;4994795;28;20565;-76
2022/04/08 07:50:57;;;;;;;4.63;1.70;;;8.80;99.90;;;;;;4993111;28;20212;-79
2022/04/08 07:53:23;;;;;;;3.90;1.70;;;8.70;99.90;;;;;;4995168;28;20193;-77
2022/04/08 07:55:49;;;;;;;4.13;2.03;;;8.80;99.90;;;;;;4994247;28;20633;-77
2022/04/08 07:58:15;;;;;;;6.23;2.13;;;8.80;99.90;;;;;;5001431;28;20243;-76
2022/04/08 08:00:41;;;;;;;2.73;1.80;;;8.80;99.90;;;;;;4996117;28;20220;-76
2022/04/08 08:03:07;;;;;;;4.20;2.70;;;8.80;99.90;;;;;;4997184;28;20834;-75
2022/04/08 08:05:33;;;;;;;3.40;1.80;;;8.80;99.90;;;;;;5000169;28;20220;-80
2022/04/08 08:08:01;;;;;;;5.37;1.90;;;8.70;99.90;;;;;;4996341;28;20239;-76
2022/04/08 08:10:37;;;;;;;5.17;1.90;;;8.60;99.90;;;;;;4999102;28;20428;-78
2022/04/08 08:13:03;;;;;;;4.43;2.07;;;8.70;99.90;;;;;;4996217;28;20526;-78
2022/04/08 08:15:31;;;;;;;3.97;1.70;;;8.70;99.90;;;;;;4999890;28;20479;-76
2022/04/08 08:17:57;;;;;;;7.97;1.80;;;8.70;99.90;;;;;;4995786;28;20491;-77
2022/04/08 08:20:24;;;;;;;6.10;1.60;;;8.80;99.90;;;;;;4997757;28;20440;-78
2022/04/08 08:22:51;;;;;;;4.90;1.93;;;8.80;99.90;;;;;;5000156;28;20368;-77
2022/04/08 08:25:18;;;;;;;5.10;1.83;;;8.90;99.90;;;;;;4999364;28;20440;-78
2022/04/08 08:27:45;;;;;;;7.77;2.67;;;8.80;99.90;;;;;;4994170;28;20444;-78
2022/04/08 08:30:13;;;;;;;6.07;2.10;;;8.70;99.90;;;;;;4998020;28;20464;-80
2022/04/08 08:32:40;;;;;;;3.03;2.10;;;8.80;99.90;;;;;;4999867;28;20486;-78
2022/04/08 08:35:07;;;;;;;3.30;1.80;;;8.70;99.90;;;;;;4996072;28;20558;-76
2022/04/08 08:37:34;;;;;;;4.50;2.07;;;8.60;99.90;;;;;;4991253;28;20489;-76
2022/04/08 08:39:59;;;;;;;4.33;2.03;;;8.60;99.90;;;;;;4993884;28;20449;-76
2022/04/08 08:42:26;;;;;;;7.13;2.40;;;8.70;99.90;;;;;;4997821;28;20464;-75
2022/04/08 08:44:52;;;;;;;3.60;2.13;;;8.80;99.90;;;;;;4999148;28;20200;-75
2022/04/08 08:47:18;;;;;;;6.80;2.10;;;8.80;99.90;;;;;;5001867;28;20958;-75
2022/04/08 08:49:50;;;;;;;5.13;2.20;;;8.90;99.90;;;;;;4999127;28;20197;-77
2022/04/08 08:52:19;;;;;;;7.13;2.13;;;8.90;99.90;;;;;;4998927;28;20517;-76
2022/04/08 08:54:46;;;;;;;4.73;1.83;;;9.00;99.90;;;;;;4996557;28;20905;-76
2022/04/08 08:57:21;;;;;;;5.17;2.90;;;9.00;99.90;;;;;;4998698;28;20423;-76
2022/04/08 08:59:47;;;;;;;4.67;2.47;;;9.00;99.90;;;;;;5001132;28;20427;-77
2022/04/08 09:02:22;;;;;;;6.30;2.10;;;9.00;99.90;;;;;;5002655;28;21034;-75
2022/04/08 09:04:51;;;;;;;4.27;2.07;;;9.00;99.90;;;;;;4995959;28;20494;-75
2022/04/08 09:07:25;;;;;;;7.77;2.60;;;9.00;99.90;;;;;;4998855;28;20478;-77
2022/04/08 09:09:56;;;;;;;5.23;2.10;;;8.80;99.90;;;;;;5000543;28;20420;-75
2022/04/08 09:12:28;;;;;;;4.97;2.30;;;8.90;99.90;;;;;;5002971;28;20440;-76
2022/04/08 09:14:57;;;;;;;4.80;2.57;;;8.80;99.90;;;;;;4997907;28;20789;-73
2022/04/08 09:17:24;;;;;;;5.53;2.83;;;8.70;99.90;;;;;;4995248;28;20524;-76
2022/04/08 09:19:56;;;;;;;2.83;1.60;;;8.80;99.90;;;;;;5000394;28;20507;-75
2022/04/08 09:22:26;;;;;;;4.43;2.23;;;8.80;99.90;;;;;;4997207;28;20470;-75
2022/04/08 09:25:10;;;;;;;3.73;2.33;;;8.60;99.90;;;;;;5000068;28;20805;-77
2022/04/08 09:27:40;;;;;;;3.27;1.50;;;8.60;99.90;;;;;;4996978;28;20524;-76
2022/04/08 09:30:07;;;;;;;4.20;2.73;;;8.80;99.90;;;;;;4993445;28;21102;-73
2022/04/08 09:32:34;;;;;;;5.40;1.77;;;8.90;99.90;;;;;;4997442;28;20476;-75
2022/04/08 09:34:59;;;;;;;2.43;1.60;;;9.10;99.90;;;;;;4997021;28;20437;-73
2022/04/08 09:37:25;;;;;;;5.10;3.03;;;9.20;99.90;;;;;;4994116;28;20433;-72
2022/04/08 09:40:07;;;;;;;5.73;2.80;;;9.30;99.90;;;;;;4992070;28;20196;-75
2022/04/08 09:42:47;;;;;;;4.27;2.87;;;9.30;99.90;;;;;;4992744;28;20209;-77
2022/04/08 09:45:14;;;;;;;5.20;2.67;;;9.40;99.90;;;;;;4997935;28;20527;-76
2022/04/08 09:47:40;;;;;;;3.07;2.47;;;9.40;99.90;;;;;;4994164;28;20467;-77
2022/04/08 09:50:10;;;;;;;3.73;2.33;;;9.70;99.90;;;;;;4998014;28;20428;-77
2022/04/08 09:52:39;;;;;;;3.80;2.80;;;9.20;99.90;;;;;;4993752;28;20444;-77
2022/04/08 09:55:07;;;;;;;3.57;2.00;;;9.50;99.90;;;;;;4994797;28;20441;-74
2022/04/08 09:57:39;;;;;;;2.80;1.80;;;9.60;99.90;;;;;;4994956;28;20478;-76
2022/04/08 10:00:07;;;;;;;7.40;1.83;;;9.60;99.90;;;;;;4998172;28;20468;-74
2022/04/08 10:02:39;;;;;;;3.03;1.70;;;9.50;99.90;;;;;;4998627;28;20467;-74
2022/04/08 10:05:07;;;;;;;5.20;1.63;;;9.40;99.90;;;;;;4994463;28;20447;-74
2022/04/08 10:07:34;;;;;;;3.47;2.07;;;9.30;99.90;;;;;;4990607;28;20428;-74
2022/04/08 10:10:09;;;;;;;3.23;1.67;;;9.40;99.90;;;;;;4988378;28;21331;-75
2022/04/08 10:12:56;;;;;;;5.73;2.40;;;9.40;99.90;;;;;;4989715;28;20482;-74
2022/04/08 10:15:38;;;;;;;2.27;1.80;;;9.20;99.90;;;;;;4987335;28;20467;-76
2022/04/08 10:18:04;;;;;;;2.70;1.37;;;9.10;99.90;;;;;;4989938;28;20463;-74
2022/04/08 10:20:33;;;;;;;2.07;1.47;;;9.30;99.90;;;;;;4990076;28;20444;-73
2022/04/08 10:23:13;;;;;;;2.10;1.27;;;9.20;99.90;;;;;;4989766;28;20491;-72
2022/04/08 10:25:43;;;;;;;2.40;1.57;;;8.90;99.90;;;;;;4991508;28;20432;-72
2022/04/08 10:28:11;;;;;;;4.77;1.60;;;9.10;99.90;;;;;;4990196;28;20701;-74
2022/04/08 10:30:45;;;;;;;3.77;1.50;;;9.20;99.90;;;;;;4992402;28;20443;-75
2022/04/08 10:33:13;;;;;;;3.90;1.97;;;9.40;99.90;;;;;;4993614;28;21070;-74
2022/04/08 10:35:53;;;;;;;3.10;1.77;;;9.30;99.90;;;;;;4996057;28;20444;-73
2022/04/08 10:38:18;;;;;;;4.70;2.13;;;9.60;99.90;;;;;;4990431;28;20507;-73
2022/04/08 10:40:53;;;;;;;2.63;1.67;;;9.60;99.90;;;;;;4992154;28;20813;-73
2022/04/08 10:43:19;;;;;;;4.10;2.03;;;9.60;99.90;;;;;;4991126;28;20214;-74
2022/04/08 10:45:56;;;;;;;2.13;1.50;;;9.30;99.90;;;;;;4991821;28;20440;-72
2022/04/08 10:48:34;;;;;;;2.90;2.00;;;9.40;99.90;;;;;;4986546;28;20302;-77
2022/04/08 10:51:14;;;;;;;4.00;2.10;;;9.00;99.90;;;;;;4990530;28;20435;-75
2022/04/08 10:53:42;;;;;;;2.10;1.87;;;8.80;99.90;;;;;;4983022;28;20939;-75
2022/04/08 10:56:13;;;;;;;3.60;2.07;;;8.90;99.90;;;;;;4981414;28;20543;-73
2022/04/08 10:58:47;;;;;;;3.17;1.40;;;9.10;99.90;;;;;;4990605;28;20466;-75
2022/04/08 11:01:24;;;;;;;3.70;1.57;;;9.10;99.90;;;;;;4985736;28;20440;-79
2022/04/08 11:04:01;;;;;;;2.00;1.40;;;9.30;99.90;;;;;;4987433;28;20467;-75
2022/04/08 11:06:30;;;;;;;2.20;1.70;;;9.10;99.90;;;;;;4990855;28;20548;-76
2022/04/08 11:08:57;;;;;;;3.07;1.90;;;9.30;99.90;;;;;;4995863;28;20449;-76
2022/04/08 11:11:29;;;;;;;3.00;1.67;;;9.20;99.90;;;;;;4997931;28;20433;-80
2022/04/08 11:13:59;;;;;;;3.10;1.60;;;9.30;99.90;;;;;;4995025;28;21631;-76
2022/04/08 11:16:31;;;;;;;4.03;2.20;;;9.70;99.90;;;;;;4995173;28;20437;-75
2022/04/08 11:18:57;;;;;;;5.27;2.10;;;9.70;99.90;;;;;;5005395;28;21260;-79
2022/04/08 11:21:24;;;;;;;2.70;1.83;;;9.70;99.90;;;;;;5000377;28;20454;-73
2022/04/08 11:23:59;;;;;;;4.30;1.83;;;9.60;99.90;;;;;;5001140;28;21010;-80
2022/04/08 11:26:25;;;;;;;4.80;1.97;;;9.80;99.90;;;;;;4997956;28;20428;-75
2022/04/08 11:28:50;;;;;;;4.50;1.50;;;9.70;99.90;;;;;;4997750;28;21025;-76
2022/04/08 11:31:19;;;;;;;3.17;1.90;;;9.70;99.90;;;;;;4995669;28;20429;-78
2022/04/08 11:33:45;;;;;;;4.80;1.70;;;9.80;99.90;;;;;;4980162;28;20664;-76
2022/04/08 11:36:11;;;;;;;3.57;1.60;;;9.90;99.90;;;;;;4995263;28;20981;-75
2022/04/08 11:38:36;;;;;;;2.00;1.50;;;10.20;99.90;;;;;;5002120;28;20460;-79
2022/04/08 11:41:04;;;;;;;1.90;1.53;;;10.30;99.90;;;;;;4994773;28;20185;-74
2022/04/08 11:43:30;;;;;;;1.90;1.70;;;10.40;99.90;;;;;;4991623;28;20362;-75
2022/04/08 11:45:56;;;;;;;2.03;1.63;;;10.50;99.90;;;;;;4993912;28;20441;-77
2022/04/08 11:48:23;;;;;;;2.57;1.70;;;10.50;99.90;;;;;;4991673;28;20448;-78
2022/04/08 11:50:50;;;;;;;1.80;1.50;;;10.40;99.90;;;;;;4996598;28;20447;-73
2022/04/08 11:53:18;;;;;;;6.57;3.40;;;10.30;99.90;;;;;;4996782;28;21018;-76
2022/04/08 11:56:01;;;;;;;1.60;1.30;;;10.00;99.90;;;;;;5001853;28;21201;-73
2022/04/08 11:58:28;;;;;;;2.63;2.00;;;9.90;99.90;;;;;;4995958;28;20444;-76
2022/04/08 12:00:54;;;;;;;2.60;1.57;;;9.90;99.90;;;;;;4995977;28;21059;-78
2022/04/08 12:03:27;;;;;;;1.90;1.30;;;9.60;99.90;;;;;;4993201;28;20479;-75
2022/04/08 12:05:53;;;;;;;2.20;1.70;;;9.10;99.90;;;;;;4993083;28;20424;-75
2022/04/08 12:08:19;;;;;;;5.40;2.57;;;8.80;99.90;;;;;;4992943;28;20449;-75
2022/04/08 12:10:54;;;;;;;5.07;2.70;;;8.70;99.90;;;;;;4989201;28;20210;-76
2022/04/08 12:13:22;;;;;;;6.33;2.70;;;8.60;99.90;;;;;;4992701;28;20435;-78
2022/04/08 12:15:49;;;;;;;7.67;2.67;;;8.90;99.90;;;;;;4995511;28;20622;-77
2022/04/08 12:18:27;;;;;;;3.33;1.60;;;9.10;99.90;;;;;;5025962;22;20527;-80
2022/04/08 12:20:55;;;;;;;3.30;1.80;;;9.30;99.90;;;;;;5019716;28;20443;-75
2022/04/08 12:23:26;;;;;;;1.70;1.30;;;9.30;99.90;;;;;;5017609;28;20472;-74
2022/04/08 12:25:59;;;;;;;2.30;1.50;;;9.30;99.90;;;;;;5018721;28;20486;-75
2022/04/08 12:28:29;;;;;;;4.40;2.40;;;9.30;99.90;;;;;;5020151;28;20451;-76
2022/04/08 12:30:55;;;;;;;2.47;1.60;;;9.40;99.90;;;;;;5022273;28;20537;-76
2022/04/08 12:33:21;;;;;;;2.47;1.83;;;9.50;99.90;;;;;;5018389;28;20553;-77
2022/04/08 12:35:47;;;;;;;3.77;1.57;;;9.60;99.90;;;;;;5018051;28;20667;-75
2022/04/08 12:38:19;;;;;;;2.33;1.67;;;9.70;99.90;;;;;;5021044;28;20203;-76
2022/04/08 12:40:49;;;;;;;2.30;1.60;;;9.80;99.90;;;;;;5016505;28;20430;-76
2022/04/08 12:43:15;;;;;;;3.20;1.70;;;9.80;99.90;;;;;;5022437;28;20459;-76
2022/04/08 12:45:41;;;;;;;2.30;1.57;;;9.90;99.90;;;;;;5020548;28;20493;-77
2022/04/08 12:48:07;;;;;;;2.57;1.60;;;9.60;99.90;;;;;;5023339;28;20458;-76
2022/04/08 12:50:33;;;;;;;3.17;2.33;;;9.60;99.90;;;;;;5019626;28;20415;-74
2022/04/08 12:53:02;;;;;;;4.13;2.17;;;9.50;99.90;;;;;;5021700;28;20957;-77